Terminal Aerodrome Forecast
Issued by NWS

Home | Current Version | Previous Version | Text Only | Print | Product List | Glossary On
Versions: 1 2 3 4 5 6 7 8 9 10 11 12 13
441
FTUS43 KMQT 120522
TAFIWD
TAF
KIWD 120522Z 1206/1306 27012G17KT P6SM BKN050
     FM120700 28011G17KT P6SM VCSH BKN040
     FM120900 30012G18KT 5SM -SHSN BKN035
     FM121100 31014G20KT 3SM -SHSN BLSN BKN022
     FM121300 31016G22KT 2SM -SHSN BLSN BKN015
      AMD LTD TO CLD VIS AND WIND=

USA.gov is the U.S. government's official web portal to all federal, state and local government web resources and services.